Time;durP1;ratioP1;P1;durP2;ratioP2;P2;SDS_P1;SDS_P2;PMS_P1;PMS_P2;Temp;Humidity;BMP_temperature;BMP_pressure;BME280_temperature;BME280_humidity;BME280_pressure;Samples;Min_cycle;Max_cycle;Signal;HPM_P1;HPM_P2
2022/07/31 00:01:20;;;;;;;2.67;1.77;;;;;;;20.72;86.11;100481.75;5001452;28;20579;-76
2022/07/31 00:03:46;;;;;;;1.80;1.70;;;;;;;20.62;86.40;100472.56;5000183;28;20657;-78
2022/07/31 00:06:11;;;;;;;2.17;1.97;;;;;;;20.54;86.55;100478.19;5003141;28;20361;-76
2022/07/31 00:08:37;;;;;;;1.70;1.60;;;;;;;20.48;87.52;100473.25;5002067;28;20190;-77
2022/07/31 00:11:03;;;;;;;2.53;1.60;;;;;;;20.41;87.23;100473.53;5005097;28;20208;-77
2022/07/31 00:13:29;;;;;;;1.73;1.63;;;;;;;20.36;87.10;100469.41;5003666;28;20188;-76
2022/07/31 00:15:54;;;;;;;1.70;1.60;;;;;;;20.33;87.45;100464.31;4997867;28;20201;-76
2022/07/31 00:18:20;;;;;;;2.00;1.80;;;;;;;20.30;87.08;100473.19;5004229;28;20183;-77
2022/07/31 00:20:48;;;;;;;2.07;1.80;;;;;;;20.30;87.86;100469.69;5000610;28;20272;-76
2022/07/31 00:23:13;;;;;;;2.57;1.70;;;;;;;20.28;88.80;100476.78;4997794;28;20191;-76
2022/07/31 00:25:39;;;;;;;1.97;1.77;;;;;;;20.21;89.39;100476.22;4998714;28;20713;-75
2022/07/31 00:28:05;;;;;;;1.77;1.67;;;;;;;20.11;89.62;100475.81;5001075;28;20285;-76
2022/07/31 00:30:31;;;;;;;2.00;1.80;;;;;;;20.00;89.08;100473.69;5003475;28;20215;-76
2022/07/31 00:32:56;;;;;;;2.57;1.70;;;;;;;19.90;89.20;100475.00;4995112;28;20888;-75
2022/07/31 00:35:22;;;;;;;2.13;1.50;;;;;;;19.83;89.46;100476.19;5004524;28;20192;-75
2022/07/31 00:37:47;;;;;;;2.07;1.87;;;;;;;19.73;89.53;100467.84;5008945;28;20195;-74
2022/07/31 00:40:15;;;;;;;2.10;1.80;;;;;;;19.66;89.49;100469.91;5005382;28;20616;-76
2022/07/31 00:42:43;;;;;;;1.87;1.77;;;;;;;19.61;89.62;100469.25;5004690;28;20190;-76
2022/07/31 00:45:10;;;;;;;2.00;1.80;;;;;;;19.56;90.17;100458.13;4997213;28;20975;-76
2022/07/31 00:47:35;;;;;;;1.97;1.87;;;;;;;19.52;90.61;100461.78;5000819;28;20190;-77
2022/07/31 00:50:02;;;;;;;2.07;1.97;;;;;;;19.44;91.12;100464.75;4999280;28;20202;-76
2022/07/31 00:52:28;;;;;;;2.00;1.70;;;;;;;19.39;90.61;100458.81;5004810;28;20674;-75
2022/07/31 00:54:54;;;;;;;2.17;1.97;;;;;;;19.32;90.81;100461.72;5004482;28;20207;-76
2022/07/31 00:57:20;;;;;;;2.13;1.93;;;;;;;19.24;91.19;100463.81;5002388;28;20194;-76
2022/07/31 00:59:45;;;;;;;1.90;1.80;;;;;;;19.21;91.03;100469.19;5002206;28;20209;-76
2022/07/31 01:02:11;;;;;;;1.90;1.70;;;;;;;19.19;91.42;100469.25;5000103;28;20205;-75
2022/07/31 01:04:36;;;;;;;2.03;1.90;;;;;;;19.19;92.33;100466.63;5000610;28;20189;-76
2022/07/31 01:07:02;;;;;;;1.90;1.80;;;;;;;19.19;92.62;100473.66;4999726;28;20788;-77
2022/07/31 01:09:28;;;;;;;1.90;1.80;;;;;;;19.14;92.71;100465.97;4995284;28;20222;-75
2022/07/31 01:12:02;;;;;;;1.70;1.60;;;;;;;19.11;92.16;100470.50;5038749;22;20245;-77
2022/07/31 01:14:32;;;;;;;1.70;1.60;;;;;;;19.09;92.28;100478.44;4997641;28;20218;-76
2022/07/31 01:16:59;;;;;;;1.80;1.70;;;;;;;19.10;92.57;100474.03;4997783;28;20190;-76
2022/07/31 01:19:40;;;;;;;3.00;2.10;;;;;;;19.10;93.11;100472.28;5001315;28;20217;-77
2022/07/31 01:22:30;;;;;;;2.30;2.10;;;;;;;19.08;94.08;100470.63;4998593;28;20195;-75
2022/07/31 01:25:12;;;;;;;2.27;2.00;;;;;;;19.01;93.01;100475.25;5002961;28;20198;-74
2022/07/31 01:27:56;;;;;;;1.80;1.70;;;;;;;18.89;92.47;100479.22;4999093;28;20594;-77
2022/07/31 01:30:29;;;;;;;2.73;1.77;;;;;;;18.78;92.41;100471.78;5004318;28;20210;-77
2022/07/31 01:33:02;;;;;;;2.13;1.93;;;;;;;18.71;92.73;100476.44;4995730;28;20194;-75
2022/07/31 01:35:35;;;;;;;2.07;1.97;;;;;;;18.67;92.69;100480.09;5003667;28;20305;-75
2022/07/31 01:38:10;;;;;;;2.60;2.40;;;;;;;18.68;93.46;100479.16;5005489;28;20187;-75
2022/07/31 01:41:04;;;;;;;1.80;1.70;;;;;;;18.67;93.78;100471.38;5005238;28;20907;-75
2022/07/31 01:43:39;;;;;;;2.33;2.20;;;;;;;18.68;94.79;100473.94;5007293;28;20242;-78
2022/07/31 01:46:08;;;;;;;3.20;2.37;;;;;;;18.67;95.63;100474.84;5003407;28;20706;-74
2022/07/31 01:48:35;;;;;;;2.50;2.30;;;;;;;18.65;95.65;100475.81;5005206;28;20256;-76
2022/07/31 01:51:02;;;;;;;2.37;2.17;;;;;;;18.59;95.62;100482.16;5006041;28;20270;-76
2022/07/31 01:53:31;;;;;;;2.20;2.00;;;;;;;18.51;95.62;100479.84;5006982;28;20275;-75
2022/07/31 01:55:59;;;;;;;2.93;2.50;;;;;;;18.44;95.55;100480.97;5005093;28;20212;-75
2022/07/31 01:58:26;;;;;;;2.30;2.20;;;;;;;18.39;96.33;100469.81;4996611;28;20342;-76
2022/07/31 02:00:57;;;;;;;2.23;2.13;;;;;;;18.35;96.01;100476.09;4997442;28;20205;-76
2022/07/31 02:03:24;;;;;;;2.27;2.17;;;;;;;18.31;95.69;100470.09;4999642;28;20192;-75
2022/07/31 02:05:51;;;;;;;2.50;2.30;;;;;;;18.31;95.81;100475.34;5006395;28;20179;-74
2022/07/31 02:08:18;;;;;;;2.70;2.20;;;;;;;18.33;95.68;100472.69;4998610;28;20186;-76
2022/07/31 02:10:44;;;;;;;2.23;2.13;;;;;;;18.30;96.05;100478.03;4999681;28;20213;-76
2022/07/31 02:13:11;;;;;;;2.50;2.23;;;;;;;18.28;96.05;100485.97;4996962;28;20184;-75
2022/07/31 02:15:37;;;;;;;2.87;2.37;;;;;;;18.21;96.02;100480.13;5014874;28;20303;-76
2022/07/31 02:18:03;;;;;;;2.50;2.30;;;;;;;18.17;96.24;100478.50;4997115;28;20263;-76
2022/07/31 02:20:30;;;;;;;2.30;2.20;;;;;;;18.12;96.35;100481.31;5000474;28;20221;-75
2022/07/31 02:22:57;;;;;;;2.27;2.17;;;;;;;18.09;96.68;100477.94;5001102;28;20190;-77
2022/07/31 02:25:23;;;;;;;2.20;2.10;;;;;;;18.05;96.87;100481.59;5001274;28;20173;-76
2022/07/31 02:27:50;;;;;;;2.23;2.03;;;;;;;18.00;97.09;100479.13;4995949;28;20214;-76
2022/07/31 02:30:17;;;;;;;2.07;1.97;;;;;;;17.93;97.06;100475.00;5008906;28;20210;-76
2022/07/31 02:32:45;;;;;;;2.00;1.90;;;;;;;17.88;96.63;100469.94;5006027;28;20220;-77
2022/07/31 02:35:15;;;;;;;2.30;2.10;;;;;;;17.86;96.86;100471.75;5007418;28;20210;-77
2022/07/31 02:37:41;;;;;;;2.00;1.90;;;;;;;17.83;96.90;100477.97;5005136;28;20213;-77
2022/07/31 02:40:11;;;;;;;1.90;1.80;;;;;;;17.79;96.96;100476.38;5007349;28;20254;-77
2022/07/31 02:42:39;;;;;;;1.90;1.80;;;;;;;17.75;96.50;100476.53;5006640;28;20192;-77
2022/07/31 02:45:06;;;;;;;2.40;2.20;;;;;;;17.72;96.33;100471.41;5013391;28;20188;-76
2022/07/31 02:47:32;;;;;;;2.03;1.93;;;;;;;17.70;96.59;100478.44;5003952;28;20200;-77
2022/07/31 02:49:58;;;;;;;2.20;2.10;;;;;;;17.68;96.38;100468.88;4996853;28;20212;-76
2022/07/31 02:52:23;;;;;;;2.53;2.20;;;;;;;17.70;96.55;100467.97;4999833;28;20188;-77
2022/07/31 02:54:50;;;;;;;1.97;1.87;;;;;;;17.70;96.31;100470.59;5004389;28;20301;-76
2022/07/31 02:57:16;;;;;;;2.30;2.10;;;;;;;17.73;96.20;100467.88;5005229;28;20191;-77
2022/07/31 02:59:43;;;;;;;2.60;2.40;;;;;;;17.74;96.43;100462.56;5003909;28;20205;-76
2022/07/31 03:02:09;;;;;;;2.77;2.23;;;;;;;17.78;96.79;100460.69;5001720;28;20384;-76
2022/07/31 03:04:34;;;;;;;2.20;2.10;;;;;;;17.76;96.51;100457.31;5009201;28;20177;-76
2022/07/31 03:07:00;;;;;;;2.30;2.10;;;;;;;17.76;96.67;100445.06;5001893;28;20188;-76
2022/07/31 03:09:29;;;;;;;2.30;2.10;;;;;;;17.75;96.99;100448.59;5003360;28;20216;-77
2022/07/31 03:11:56;;;;;;;1.87;1.77;;;;;;;17.75;96.83;100456.44;5002495;28;20284;-77
2022/07/31 03:14:24;;;;;;;2.10;2.00;;;;;;;17.73;97.17;100460.03;5001629;28;20257;-76
2022/07/31 03:16:51;;;;;;;2.73;2.53;;;;;;;17.70;97.27;100455.75;5008761;28;20181;-76
2022/07/31 03:19:19;;;;;;;2.43;2.23;;;;;;;17.67;97.20;100461.94;5001087;28;20626;-76
2022/07/31 03:21:45;;;;;;;2.33;2.20;;;;;;;17.64;97.36;100455.97;5004295;28;20208;-76
2022/07/31 03:24:11;;;;;;;2.03;1.93;;;;;;;17.61;97.88;100463.94;5017467;28;20616;-76
2022/07/31 03:26:37;;;;;;;2.50;2.30;;;;;;;17.57;97.83;100459.69;4999956;28;20189;-76
2022/07/31 03:29:03;;;;;;;2.10;2.00;;;;;;;17.52;97.45;100460.75;5004902;28;20297;-76
2022/07/31 03:31:29;;;;;;;2.43;2.23;;;;;;;17.50;97.78;100464.31;5000452;28;20204;-76
2022/07/31 03:33:54;;;;;;;2.20;2.07;;;;;;;17.47;97.68;100462.66;4999177;28;20204;-76
2022/07/31 03:36:20;;;;;;;2.80;2.60;;;;;;;17.45;97.83;100461.84;5011115;28;20286;-76
2022/07/31 03:38:45;;;;;;;2.30;2.10;;;;;;;17.44;98.05;100459.31;5009810;28;20197;-76
2022/07/31 03:41:10;;;;;;;2.27;2.07;;;;;;;17.45;98.23;100453.16;5011887;28;20213;-75
2022/07/31 03:43:37;;;;;;;2.37;2.20;;;;;;;17.45;97.91;100455.78;5003241;28;20203;-76
2022/07/31 03:46:04;;;;;;;2.40;2.20;;;;;;;17.46;98.24;100455.72;4999004;28;20195;-76
2022/07/31 03:48:31;;;;;;;2.47;2.27;;;;;;;17.49;97.50;100465.22;5006850;28;21514;-75
2022/07/31 03:50:56;;;;;;;2.37;2.27;;;;;;;17.49;97.48;100463.47;5003685;28;20208;-76
2022/07/31 03:53:23;;;;;;;2.50;2.30;;;;;;;17.53;97.54;100466.81;5016947;28;20183;-76
2022/07/31 03:55:49;;;;;;;2.23;2.13;;;;;;;17.57;97.61;100463.19;5005351;28;20597;-76
2022/07/31 03:58:17;;;;;;;2.20;2.10;;;;;;;17.60;97.80;100463.09;5002124;28;20279;-75
2022/07/31 04:00:45;;;;;;;2.43;2.23;;;;;;;17.66;98.31;100464.63;5004636;28;20265;-77
2022/07/31 04:03:11;;;;;;;2.40;2.20;;;;;;;17.71;98.51;100467.06;5007730;28;20227;-74
2022/07/31 04:05:41;;;;;;;2.83;2.60;;;;;;;17.76;98.35;100466.00;5002299;28;20190;-74
2022/07/31 04:08:08;;;;;;;2.33;2.23;;;;;;;17.85;98.61;100466.59;5003616;28;20188;-76
2022/07/31 04:10:35;;;;;;;2.50;2.30;;;;;;;17.91;98.79;100459.38;4996729;28;20217;-77
2022/07/31 04:13:04;;;;;;;2.60;2.40;;;;;;;17.98;98.16;100465.25;5005991;28;20220;-76
2022/07/31 04:15:30;;;;;;;2.30;2.10;;;;;;;18.02;97.38;100456.34;4999504;28;20228;-76
2022/07/31 04:17:56;;;;;;;3.20;2.60;;;;;;;18.10;97.19;100458.69;5002599;28;20200;-77
2022/07/31 04:20:21;;;;;;;2.47;2.27;;;;;;;18.18;96.42;100456.66;4999839;28;20215;-77
2022/07/31 04:22:47;;;;;;;2.53;2.33;;;;;;;18.30;95.70;100462.31;5004913;28;20674;-76
2022/07/31 04:25:13;;;;;;;2.30;2.10;;;;;;;18.47;94.93;100462.53;5005579;28;20212;-73
2022/07/31 04:27:39;;;;;;;2.23;2.10;;;;;;;18.69;94.44;100461.66;4997602;28;20261;-76
2022/07/31 04:30:05;;;;;;;2.17;2.07;;;;;;;18.84;93.96;100452.34;5002100;28;20205;-76
2022/07/31 04:32:31;;;;;;;2.37;2.17;;;;;;;19.00;92.87;100465.69;5002126;28;20178;-76
2022/07/31 04:34:56;;;;;;;1.90;1.80;;;;;;;19.05;92.76;100468.97;5001835;28;20968;-76
2022/07/31 04:37:22;;;;;;;2.13;2.03;;;;;;;19.04;92.92;100464.66;5003602;28;20193;-75
2022/07/31 04:39:47;;;;;;;2.53;2.30;;;;;;;19.04;92.78;100470.78;5014284;28;20208;-76
2022/07/31 04:42:13;;;;;;;2.23;2.13;;;;;;;19.06;92.96;100469.84;5016743;28;20201;-76
2022/07/31 04:44:38;;;;;;;2.23;2.03;;;;;;;19.06;92.65;100477.72;5015752;28;20229;-76
2022/07/31 04:47:04;;;;;;;2.17;1.90;;;;;;;19.09;92.45;100477.56;5022299;28;20251;-76
2022/07/31 04:49:32;;;;;;;2.60;2.10;;;;;;;19.10;92.24;100476.66;5011459;28;20202;-76
2022/07/31 04:52:01;;;;;;;1.80;1.70;;;;;;;19.14;91.78;100483.50;5018646;28;20189;-76
2022/07/31 04:54:26;;;;;;;1.80;1.70;;;;;;;19.20;91.23;100478.00;5003566;28;21036;-76
2022/07/31 04:56:52;;;;;;;2.70;1.93;;;;;;;19.27;91.12;100482.06;5023562;28;20267;-77
2022/07/31 04:59:20;;;;;;;1.80;1.70;;;;;;;19.36;91.11;100488.69;5010460;28;20210;-75
2022/07/31 05:01:46;;;;;;;2.07;1.93;;;;;;;19.43;90.67;100484.91;5013502;28;20184;-76
2022/07/31 05:04:12;;;;;;;2.03;1.77;;;;;;;19.54;90.18;100488.81;5018345;28;20179;-77
2022/07/31 05:06:39;;;;;;;1.90;1.80;;;;;;;19.64;89.52;100488.34;5010115;28;20199;-76
2022/07/31 05:09:08;;;;;;;2.10;2.00;;;;;;;19.73;88.85;100491.50;4998804;28;20228;-76
2022/07/31 05:11:36;;;;;;;2.10;2.00;;;;;;;19.80;87.81;100491.16;5017380;28;20198;-77
2022/07/31 05:14:04;;;;;;;2.00;1.77;;;;;;;19.89;87.02;100489.09;5020174;28;20237;-75
2022/07/31 05:16:34;;;;;;;1.73;1.63;;;;;;;19.99;86.63;100484.25;5033847;28;20186;-76
2022/07/31 05:19:05;;;;;;;2.10;1.90;;;;;;;20.09;85.83;100485.56;5016922;28;20212;-76
2022/07/31 05:21:31;;;;;;;1.80;1.70;;;;;;;20.19;85.01;100480.72;5008671;28;20195;-75
2022/07/31 05:23:58;;;;;;;2.00;1.90;;;;;;;20.29;84.59;100484.63;5012041;28;20660;-73
2022/07/31 05:26:29;;;;;;;2.17;2.00;;;;;;;20.36;83.89;100477.31;5015466;28;20194;-76
2022/07/31 05:28:58;;;;;;;1.90;1.80;;;;;;;20.48;84.12;100473.25;4993051;28;20220;-77
2022/07/31 05:31:24;;;;;;;1.70;1.60;;;;;;;20.55;84.03;100470.25;5006218;28;20714;-77
2022/07/31 05:33:50;;;;;;;2.60;1.70;;;;;;;20.65;83.47;100468.00;4998980;28;20284;-78
2022/07/31 05:36:18;;;;;;;1.90;1.80;;;;;;;20.75;83.87;100473.72;5000567;28;20266;-76
2022/07/31 05:38:44;;;;;;;1.80;1.70;;;;;;;20.85;83.90;100477.63;5009468;28;20946;-76
2022/07/31 05:41:10;;;;;;;2.50;1.80;;;;;;;20.94;83.44;100476.31;5006537;28;20279;-76
2022/07/31 05:43:37;;;;;;;1.90;1.80;;;;;;;21.03;83.17;100477.63;5022686;28;20225;-76
2022/07/31 05:46:04;;;;;;;1.60;1.47;;;;;;;21.12;82.95;100473.66;5005505;28;20184;-77
2022/07/31 05:48:30;;;;;;;1.83;1.70;;;;;;;21.22;83.04;100474.94;4994904;28;20203;-78
2022/07/31 05:50:55;;;;;;;1.67;1.57;;;;;;;21.31;82.60;100478.88;4988543;28;20298;-77
2022/07/31 05:53:21;;;;;;;1.67;1.57;;;;;;;21.41;82.35;100479.22;5000507;28;20180;-76
2022/07/31 05:55:49;;;;;;;2.57;1.80;;;;;;;21.51;82.06;100484.88;5004583;28;20223;-77
2022/07/31 05:58:16;;;;;;;1.73;1.63;;;;;;;21.59;81.12;100480.91;5001312;28;20282;-77
2022/07/31 06:00:42;;;;;;;1.80;1.70;;;;;;;21.70;80.92;100476.94;5014342;28;20214;-76
2022/07/31 06:03:09;;;;;;;1.97;1.50;;;;;;;21.81;80.35;100482.47;5023045;28;20678;-77
2022/07/31 06:05:35;;;;;;;1.80;1.70;;;;;;;21.90;79.95;100481.13;5008368;28;20177;-77
2022/07/31 06:08:00;;;;;;;1.70;1.60;;;;;;;21.98;79.46;100484.19;5013340;28;20238;-77
2022/07/31 06:10:27;;;;;;;1.80;1.70;;;;;;;22.04;79.20;100489.16;5015272;28;20226;-76
2022/07/31 06:12:52;;;;;;;1.60;1.50;;;;;;;22.12;78.71;100483.47;5017252;28;20191;-76
2022/07/31 06:15:18;;;;;;;1.90;1.80;;;;;;;22.18;78.61;100483.09;5014761;28;20235;-78
2022/07/31 06:17:44;;;;;;;2.10;1.90;;;;;;;22.21;77.86;100479.47;5023337;28;20207;-77
2022/07/31 06:20:13;;;;;;;2.10;1.83;;;;;;;22.22;76.96;100481.19;5013221;28;20684;-76
2022/07/31 06:22:44;;;;;;;1.80;1.70;;;;;;;22.28;76.35;100485.25;5024440;28;20738;-77
2022/07/31 06:25:11;;;;;;;1.97;1.87;;;;;;;22.36;76.07;100483.03;5013541;28;20640;-77
2022/07/31 06:27:36;;;;;;;1.70;1.60;;;;;;;22.47;75.16;100488.59;5019575;28;20690;-77
2022/07/31 06:30:11;;;;;;;2.20;2.00;;;;;;;22.66;74.70;100479.66;5025852;28;20289;-77
2022/07/31 06:32:37;;;;;;;2.30;2.10;;;;;;;22.90;74.48;100473.91;5016738;28;20182;-76
2022/07/31 06:35:03;;;;;;;2.10;1.93;;;;;;;23.39;74.11;100476.31;5011319;28;20438;-76
2022/07/31 06:37:28;;;;;;;1.80;1.70;;;;;;;24.14;73.18;100477.97;5026530;28;20268;-78
2022/07/31 06:39:54;;;;;;;2.10;2.00;;;;;;;25.59;70.37;100472.06;5004546;28;20643;-77
2022/07/31 06:42:21;;;;;;;2.87;1.87;;;;;;;26.78;66.66;100476.88;5017604;28;20193;-77
2022/07/31 06:44:46;;;;;;;2.23;2.00;;;;;;;27.73;65.23;100484.88;5010412;28;21005;-78
2022/07/31 06:47:12;;;;;;;2.13;2.00;;;;;;;28.21;62.54;100481.09;5022437;28;20176;-77
2022/07/31 06:49:37;;;;;;;1.97;1.87;;;;;;;27.96;63.65;100475.06;5018083;28;20276;-77
2022/07/31 06:52:03;;;;;;;2.30;2.10;;;;;;;27.96;63.89;100478.56;5019973;28;20195;-77
2022/07/31 06:54:28;;;;;;;2.00;1.80;;;;;;;28.07;64.10;100479.50;5018921;28;20207;-78
2022/07/31 06:56:53;;;;;;;2.80;2.07;;;;;;;28.06;64.35;100473.34;5005342;28;20612;-78
2022/07/31 06:59:19;;;;;;;1.90;1.80;;;;;;;28.31;63.42;100470.56;5009400;28;20183;-78
2022/07/31 07:01:44;;;;;;;1.80;1.60;;;;;;;28.21;63.87;100468.63;5012060;28;20181;-77
2022/07/31 07:04:09;;;;;;;2.73;1.93;;;;;;;28.26;64.01;100471.78;5016298;28;20204;-77
2022/07/31 07:06:35;;;;;;;2.30;2.10;;;;;;;29.19;62.32;100464.16;5025441;28;20269;-77
2022/07/31 07:09:00;;;;;;;1.90;1.70;;;;;;;30.21;61.03;100470.53;5000295;28;20363;-76
2022/07/31 07:11:25;;;;;;;1.93;1.83;;;;;;;31.20;59.75;100459.88;5009264;28;20219;-78
2022/07/31 07:13:51;;;;;;;1.87;1.77;;;;;;;31.99;58.32;100466.66;5008015;28;20229;-78
2022/07/31 07:16:16;;;;;;;1.77;1.67;;;;;;;32.58;57.00;100460.91;5008090;28;20195;-77
2022/07/31 07:18:42;;;;;;;2.20;1.80;;;;;;;32.76;56.44;100462.75;5008892;28;20212;-79
2022/07/31 07:21:07;;;;;;;1.73;1.60;;;;;;;32.98;55.85;100459.56;5005509;28;20255;-78
2022/07/31 07:23:33;;;;;;;1.80;1.70;;;;;;;33.03;55.85;100459.13;5010814;28;20183;-77
2022/07/31 07:25:58;;;;;;;2.97;1.63;;;;;;;33.08;56.00;100456.81;5000288;28;20176;-78
2022/07/31 07:28:24;;;;;;;1.75;1.65;;;;;;;32.84;56.09;100460.16;5017782;28;20668;-77
2022/07/31 07:30:49;;;;;;;2.53;1.80;;;;;;;32.67;56.37;100459.16;5005737;28;20287;-78
2022/07/31 07:33:14;;;;;;;1.75;1.40;;;;;;;32.48;56.95;100463.66;4998324;28;20184;-76
2022/07/31 07:35:40;;;;;;;1.85;1.60;;;;;;;32.63;55.84;100457.75;5005191;28;20209;-77
2022/07/31 07:38:06;;;;;;;2.35;1.85;;;;;;;32.58;56.09;100454.72;5008765;28;20185;-77
2022/07/31 07:40:32;;;;;;;2.03;1.90;;;;;;;32.47;56.47;100456.63;4994967;28;20203;-76
2022/07/31 07:42:57;;;;;;;1.85;1.75;;;;;;;32.50;56.12;100452.81;5014191;28;20193;-76
2022/07/31 07:45:23;;;;;;;2.28;1.90;;;;;;;32.48;56.05;100446.75;5010734;28;20200;-78
2022/07/31 07:47:49;;;;;;;2.10;1.90;;;;;;;32.50;55.96;100450.97;5008088;28;20216;-78
2022/07/31 07:50:14;;;;;;;2.17;1.97;;;;;;;32.58;55.81;100452.03;4996995;28;20208;-76
2022/07/31 07:52:40;;;;;;;2.03;1.75;;;;;;;32.52;56.03;100446.28;5000623;28;20198;-76
2022/07/31 07:55:05;;;;;;;1.80;1.70;;;;;;;32.44;56.05;100443.56;5001009;28;20287;-77
2022/07/31 07:57:31;;;;;;;1.70;1.60;;;;;;;32.17;56.20;100434.53;5005411;28;20550;-78
2022/07/31 08:00:04;;;;;;;1.93;1.83;;;;;;;32.01;55.51;100437.91;5004629;28;20210;-77
2022/07/31 08:02:29;;;;;;;2.27;2.07;;;;;;;31.81;56.22;100436.31;5008305;28;20192;-76
2022/07/31 08:04:55;;;;;;;3.10;1.70;;;;;;;31.76;56.81;100434.94;4995777;28;20189;-77
2022/07/31 08:07:30;;;;;;;3.03;1.90;;;;;;;31.76;56.98;100432.28;5003002;28;20192;-76
2022/07/31 08:09:59;;;;;;;2.07;1.87;;;;;;;31.66;56.66;100431.44;5003610;28;20208;-77
2022/07/31 08:12:25;;;;;;;2.03;1.80;;;;;;;31.52;56.99;100432.78;5001878;28;20199;-77
2022/07/31 08:14:51;;;;;;;1.30;1.30;;;;;;;31.46;57.14;100428.84;5007598;28;20211;-77
2022/07/31 08:17:16;;;;;;;1.98;1.88;;;;;;;31.38;56.79;100430.59;5009296;28;20249;-76
2022/07/31 08:19:42;;;;;;;1.80;1.63;;;;;;;31.31;57.02;100433.81;5016160;28;20590;-77
2022/07/31 08:22:08;;;;;;;2.17;1.70;;;;;;;31.33;57.23;100428.31;5007479;28;20633;-75
2022/07/31 08:24:34;;;;;;;4.03;1.90;;;;;;;31.38;56.56;100420.72;5000477;28;20521;-76
2022/07/31 08:29:46;;;;;;;2.00;1.80;;;;;;;31.35;56.30;100412.16;4999558;28;20267;-77
2022/07/31 08:32:12;;;;;;;1.90;1.77;;;;;;;31.21;57.21;100418.78;5007553;28;20192;-77
2022/07/31 08:34:38;;;;;;;2.23;1.57;;;;;;;31.11;56.19;100418.78;5000579;28;20563;-78
2022/07/31 08:37:05;;;;;;;1.80;1.70;;;;;;;31.01;56.55;100408.13;4998794;28;20271;-76
2022/07/31 08:39:31;;;;;;;2.58;1.73;;;;;;;30.97;56.51;100415.59;5012653;28;20195;-77
2022/07/31 08:41:57;;;;;;;4.47;1.92;;;;;;;30.91;56.59;100415.31;5016410;28;20194;-76
2022/07/31 08:44:22;;;;;;;2.03;1.83;;;;;;;30.80;56.88;100408.31;5003145;28;20554;-77
2022/07/31 08:46:52;;;;;;;1.92;1.80;;;;;;;30.77;57.71;100406.78;5009237;28;20188;-78
2022/07/31 08:49:20;;;;;;;2.00;1.70;;;;;;;30.77;58.11;100406.78;5012455;28;20203;-77
2022/07/31 08:51:45;;;;;;;2.00;1.80;;;;;;;30.76;58.12;100409.59;5005605;28;20182;-77
2022/07/31 08:54:11;;;;;;;1.57;1.40;;;;;;;30.68;58.24;100408.47;5008983;28;20208;-76
2022/07/31 08:56:37;;;;;;;1.90;1.80;;;;;;;30.60;58.60;100400.34;5002459;28;20275;-76
2022/07/31 08:59:04;;;;;;;1.93;1.83;;;;;;;30.56;58.51;100410.44;4995858;28;20181;-76
2022/07/31 09:01:32;;;;;;;1.57;1.47;;;;;;;30.60;58.54;100394.13;4999931;28;20267;-76
2022/07/31 09:03:58;;;;;;;2.10;1.80;;;;;;;30.65;57.73;100403.41;5001988;28;20192;-77
2022/07/31 09:06:23;;;;;;;1.67;1.57;;;;;;;30.61;57.25;100401.16;5005033;28;20196;-78
2022/07/31 09:08:49;;;;;;;2.53;1.73;;;;;;;30.61;57.62;100387.81;5005274;28;20238;-76
2022/07/31 09:11:15;;;;;;;1.73;1.63;;;;;;;30.65;56.02;100391.88;5003102;28;20215;-76
2022/07/31 09:14:01;;;;;;;1.70;1.60;;;;;;;30.63;56.68;100389.34;5002102;28;20185;-77
2022/07/31 09:16:27;;;;;;;1.70;1.60;;;;;;;30.65;56.84;100386.53;5002026;28;20214;-76
2022/07/31 09:19:03;;;;;;;1.60;1.50;;;;;;;30.67;57.08;100385.41;5011702;28;20184;-76
2022/07/31 09:21:42;;;;;;;1.63;1.50;;;;;;;30.79;56.70;100386.09;5005958;28;20273;-77
2022/07/31 09:24:09;;;;;;;2.27;1.57;;;;;;;30.85;57.24;100382.00;5000072;28;20177;-76
2022/07/31 09:26:36;;;;;;;1.92;1.77;;;;;;;30.98;57.38;100384.38;4999681;28;20184;-77
2022/07/31 09:29:07;;;;;;;1.80;1.70;;;;;;;31.17;56.85;100375.47;5004548;28;20185;-78
2022/07/31 09:31:33;;;;;;;1.63;1.52;;;;;;;31.41;56.42;100379.47;5003315;28;20184;-77
2022/07/31 09:34:00;;;;;;;2.83;1.73;;;;;;;31.69;55.49;100374.13;5003811;28;20600;-78
2022/07/31 09:36:25;;;;;;;1.98;1.75;;;;;;;31.92;55.24;100375.41;4997793;28;20227;-78
2022/07/31 09:38:51;;;;;;;1.90;1.80;;;;;;;32.08;55.57;100373.91;5006358;28;20189;-76
2022/07/31 09:41:21;;;;;;;1.92;1.77;;;;;;;32.32;55.31;100367.97;5002863;28;20212;-78
2022/07/31 09:44:04;;;;;;;2.33;1.90;;;;;;;32.55;54.81;100358.59;4993502;28;20208;-78
2022/07/31 09:46:43;;;;;;;6.57;2.00;;;;;;;32.80;54.91;100370.31;4999245;28;20215;-77
2022/07/31 09:49:09;;;;;;;2.25;1.83;;;;;;;33.02;54.66;100371.66;5001469;28;20184;-78
2022/07/31 09:51:45;;;;;;;1.70;1.58;;;;;;;33.17;54.14;100365.72;4995558;28;20250;-76
2022/07/31 09:54:21;;;;;;;2.63;1.90;;;;;;;33.20;53.96;100366.22;5003426;28;20770;-76
2022/07/31 09:56:48;;;;;;;1.65;1.55;;;;;;;33.21;53.84;100365.22;4998232;28;20191;-77
2022/07/31 09:59:14;;;;;;;1.95;1.85;;;;;;;33.27;54.04;100363.75;5004139;28;20229;-79
2022/07/31 10:01:41;;;;;;;1.95;1.77;;;;;;;33.16;53.80;100359.50;5008503;28;20263;-77
2022/07/31 10:04:11;;;;;;;1.75;1.65;;;;;;;33.11;54.17;100362.66;5005791;28;20188;-76
2022/07/31 10:06:37;;;;;;;2.00;1.80;;;;;;;33.21;54.48;100365.22;5000004;28;20199;-77
2022/07/31 10:09:03;;;;;;;1.75;1.60;;;;;;;33.28;54.24;100355.53;5000994;28;20295;-77
2022/07/31 10:11:30;;;;;;;1.77;1.67;;;;;;;33.35;53.57;100353.09;5001989;28;20220;-77
2022/07/31 10:13:59;;;;;;;1.98;1.48;;;;;;;33.49;53.83;100356.97;5001137;28;20192;-76
2022/07/31 10:16:28;;;;;;;2.15;1.40;;;;;;;33.66;53.80;100365.09;5007522;28;20290;-76
2022/07/31 10:18:59;;;;;;;2.90;1.60;;;;;;;33.89;53.36;100351.91;5016393;28;20184;-76
2022/07/31 10:21:32;;;;;;;1.65;1.55;;;;;;;33.98;52.76;100355.47;5009522;28;20222;-77
2022/07/31 10:23:59;;;;;;;2.40;1.80;;;;;;;34.02;52.83;100359.50;5005248;28;20184;-77
2022/07/31 10:26:26;;;;;;;2.13;1.88;;;;;;;34.15;52.32;100359.00;4994729;28;20180;-76
2022/07/31 10:28:52;;;;;;;2.25;2.05;;;;;;;34.24;52.20;100349.94;5002755;28;20181;-77
2022/07/31 10:31:17;;;;;;;1.85;1.70;;;;;;;34.28;51.64;100342.38;5002874;28;20724;-77
2022/07/31 10:33:44;;;;;;;1.67;1.50;;;;;;;34.29;51.56;100347.56;5000056;28;20236;-77
2022/07/31 10:36:21;;;;;;;1.73;1.63;;;;;;;34.34;51.27;100344.38;5007835;28;20216;-78
2022/07/31 10:39:12;;;;;;;1.65;1.55;;;;;;;34.37;50.98;100341.38;5006622;28;20647;-77
2022/07/31 10:42:03;;;;;;;1.73;1.63;;;;;;;34.42;49.92;100335.50;5002084;28;20573;-78
2022/07/31 10:44:33;;;;;;;1.73;1.63;;;;;;;34.19;50.50;100328.13;4999987;28;20271;-77
2022/07/31 10:46:59;;;;;;;1.60;1.40;;;;;;;34.09;50.73;100330.13;4995180;28;20199;-76
2022/07/31 10:49:39;;;;;;;1.75;1.63;;;;;;;33.89;51.65;100317.84;5005202;28;20179;-77
2022/07/31 10:52:05;;;;;;;1.60;1.50;;;;;;;33.79;52.00;100317.16;5006392;28;20187;-77
2022/07/31 10:54:43;;;;;;;2.08;1.70;;;;;;;33.80;51.94;100318.81;5007826;28;20220;-78
2022/07/31 10:57:20;;;;;;;1.88;1.60;;;;;;;33.89;52.45;100319.72;5013936;28;20188;-77
2022/07/31 10:59:46;;;;;;;2.00;1.80;;;;;;;33.99;51.86;100311.50;5003126;28;20217;-76
2022/07/31 11:02:11;;;;;;;2.03;1.92;;;;;;;33.92;52.29;100319.38;5009583;28;20188;-76
2022/07/31 11:04:37;;;;;;;1.95;1.63;;;;;;;33.77;52.60;100308.41;4992622;28;20272;-76
2022/07/31 11:07:13;;;;;;;2.60;1.92;;;;;;;33.54;52.93;100302.84;5008573;28;20197;-77
2022/07/31 11:09:40;;;;;;;2.10;2.00;;;;;;;33.29;53.12;100310.78;5005025;28;20218;-77
2022/07/31 11:12:16;;;;;;;2.47;2.28;;;;;;;33.03;53.67;100302.78;5016721;28;20196;-77
2022/07/31 11:14:42;;;;;;;3.30;2.22;;;;;;;32.82;54.20;100302.19;5002178;28;20200;-77
2022/07/31 11:17:07;;;;;;;2.28;2.10;;;;;;;32.88;53.98;100297.22;5010039;28;20193;-77
2022/07/31 11:19:40;;;;;;;2.00;1.85;;;;;;;32.82;54.02;100287.97;5023863;28;20253;-78
2022/07/31 11:22:11;;;;;;;2.00;1.80;;;;;;;32.68;54.25;100294.72;5008457;28;20703;-77
2022/07/31 11:24:37;;;;;;;1.80;1.70;;;;;;;32.60;54.83;100298.19;5007618;28;20650;-77
2022/07/31 11:27:02;;;;;;;2.70;2.17;;;;;;;32.49;55.30;100283.22;5009994;28;20211;-77
2022/07/31 11:29:38;;;;;;;1.95;1.80;;;;;;;32.69;55.11;100280.31;5020607;28;20694;-78